createdAt,value
2018-12-10T00:00:31.115Z,47.53
2018-12-10T00:01:31.338Z,47.53
2018-12-10T00:02:30.974Z,47.56
2018-12-10T00:03:30.987Z,47.52
2018-12-10T00:04:31.385Z,47.63
2018-12-10T00:05:31.239Z,47.52
2018-12-10T00:06:31.052Z,47.59
2018-12-10T00:07:31.038Z,47.61
2018-12-10T00:08:31.196Z,47.61
2018-12-10T00:09:31.340Z,47.56
2018-12-10T00:10:31.436Z,47.6
2018-12-10T00:11:30.934Z,47.63
2018-12-10T00:12:31.911Z,47.63
2018-12-10T00:13:31.559Z,47.65
2018-12-10T00:14:30.966Z,47.61
2018-12-10T00:15:31.157Z,47.62
2018-12-10T00:16:31.157Z,47.58
2018-12-10T00:17:31.177Z,47.62
2018-12-10T00:18:31.284Z,47.63
2018-12-10T00:19:31.165Z,47.67
2018-12-10T00:20:30.915Z,47.59
2018-12-10T00:21:31.413Z,47.7
2018-12-10T00:22:30.903Z,47.7
2018-12-10T00:23:31.246Z,47.68
2018-12-10T00:24:30.844Z,47.62
2018-12-10T00:25:30.950Z,47.68
2018-12-10T00:26:31.415Z,47.6
2018-12-10T00:27:31.220Z,47.65
2018-12-10T00:28:31.103Z,47.72
2018-12-10T00:29:30.943Z,47.62
2018-12-10T00:30:31.205Z,47.69
2018-12-10T00:31:31.212Z,47.65
2018-12-10T00:32:31.006Z,47.68
2018-12-10T00:33:31.149Z,47.66
2018-12-10T00:34:30.924Z,47.69
2018-12-10T00:35:31.305Z,47.69
2018-12-10T00:36:30.931Z,47.67
2018-12-10T00:37:31.185Z,47.7
2018-12-10T00:38:31.126Z,47.66
2018-12-10T00:39:31.398Z,47.7
2018-12-10T00:40:31.238Z,47.68
2018-12-10T00:41:30.985Z,47.67
2018-12-10T00:42:31.443Z,47.68
2018-12-10T00:43:31.066Z,47.69
2018-12-10T00:44:31.094Z,47.65
2018-12-10T00:45:30.859Z,47.7
2018-12-10T00:46:31.815Z,47.68
2018-12-10T00:47:31.078Z,47.72
2018-12-10T00:48:31.204Z,47.7
2018-12-10T00:49:31.074Z,47.66
2018-12-10T00:50:31.105Z,47.71
2018-12-10T00:51:31.031Z,47.71
2018-12-10T00:52:30.988Z,47.69
2018-12-10T00:53:31.112Z,47.72
2018-12-10T00:54:31.539Z,47.77
2018-12-10T00:55:31.085Z,47.72
2018-12-10T00:56:32.021Z,47.81
2018-12-10T00:57:31.323Z,47.68
2018-12-10T00:58:31.265Z,47.8
2018-12-10T00:59:30.950Z,47.79
2018-12-10T01:00:30.776Z,47.76
2018-12-10T01:01:30.965Z,47.75
2018-12-10T01:02:31.191Z,47.83
2018-12-10T01:03:30.728Z,47.77
2018-12-10T01:04:31.150Z,47.73
2018-12-10T01:05:31.110Z,47.73
2018-12-10T01:06:30.842Z,47.8
2018-12-10T01:07:31.023Z,47.73
2018-12-10T01:08:31.126Z,47.81
2018-12-10T01:09:30.834Z,47.75
2018-12-10T01:10:30.902Z,47.74
2018-12-10T01:11:30.964Z,47.75
2018-12-10T01:12:31.026Z,47.81
2018-12-10T01:13:30.865Z,47.73
2018-12-10T01:14:31.026Z,47.79
2018-12-10T01:15:30.907Z,47.79
2018-12-10T01:16:31.179Z,47.77
2018-12-10T01:17:31.014Z,47.74
2018-12-10T01:18:30.984Z,47.81
2018-12-10T01:19:30.827Z,47.81
2018-12-10T01:20:31.014Z,47.77
2018-12-10T01:21:31.123Z,47.76
2018-12-10T01:22:31.023Z,47.8
2018-12-10T01:23:30.934Z,47.74
2018-12-10T01:24:30.827Z,47.74
2018-12-10T01:25:30.950Z,47.8
2018-12-10T01:26:31.154Z,47.74
2018-12-10T01:27:31.033Z,47.78
2018-12-10T01:28:31.086Z,47.73
2018-12-10T01:29:30.864Z,47.79
2018-12-10T01:30:31.050Z,47.75
2018-12-10T01:31:31.281Z,47.7
2018-12-10T01:32:31.197Z,47.79
2018-12-10T01:33:31.028Z,47.78
2018-12-10T01:34:30.751Z,47.71
2018-12-10T01:35:30.742Z,47.69
2018-12-10T01:36:30.913Z,47.76
2018-12-10T01:37:30.974Z,47.81
2018-12-10T01:38:31.070Z,47.81
2018-12-10T01:39:31.033Z,47.76
2018-12-10T01:40:31.162Z,47.73
2018-12-10T01:41:31.231Z,47.78
2018-12-10T01:42:31.099Z,47.76
2018-12-10T01:43:30.829Z,47.76
2018-12-10T01:44:31.278Z,47.72
2018-12-10T01:45:30.818Z,47.77
2018-12-10T01:46:31.349Z,47.78
2018-12-10T01:47:31.100Z,47.74
2018-12-10T01:48:30.957Z,47.79
2018-12-10T01:49:31.324Z,47.81
2018-12-10T01:50:31.424Z,47.79
2018-12-10T01:51:31.719Z,47.78
2018-12-10T01:52:30.840Z,47.8
2018-12-10T01:53:31.207Z,47.78
2018-12-10T01:54:30.882Z,47.81
2018-12-10T01:55:31.092Z,47.78
2018-12-10T01:56:31.136Z,47.76
2018-12-10T01:57:31.333Z,47.76
2018-12-10T01:58:30.806Z,47.77
2018-12-10T01:59:31.025Z,47.76
2018-12-10T02:00:31.250Z,47.77
2018-12-10T02:01:31.709Z,47.76
2018-12-10T02:02:31.261Z,47.76
2018-12-10T02:03:31.127Z,47.81
2018-12-10T02:04:30.999Z,47.72
2018-12-10T02:05:31.088Z,47.78
2018-12-10T02:06:30.892Z,47.78
2018-12-10T02:07:31.745Z,47.79
2018-12-10T02:08:31.229Z,47.82
2018-12-10T02:09:31.334Z,47.79
2018-12-10T02:10:30.798Z,47.75
2018-12-10T02:11:31.041Z,47.81
2018-12-10T02:12:31.164Z,47.81
2018-12-10T02:13:31.415Z,47.81
2018-12-10T02:14:30.891Z,47.77
2018-12-10T02:15:31.177Z,47.77
2018-12-10T02:16:31.336Z,47.83
2018-12-10T02:17:30.993Z,47.84
2018-12-10T02:18:31.106Z,47.75
2018-12-10T02:19:30.989Z,47.84
2018-12-10T02:20:31.217Z,47.76
2018-12-10T02:21:31.597Z,47.8
2018-12-10T02:22:31.132Z,47.83
2018-12-10T02:23:30.762Z,47.83
2018-12-10T02:24:30.822Z,47.8
2018-12-10T02:25:31.352Z,47.81
2018-12-10T02:26:31.157Z,47.78
2018-12-10T02:27:31.288Z,47.85
2018-12-10T02:28:30.808Z,47.87
2018-12-10T02:29:31.022Z,47.8
2018-12-10T02:30:30.835Z,47.83
2018-12-10T02:31:31.058Z,47.78
2018-12-10T02:32:31.395Z,47.81
2018-12-10T02:33:31.088Z,47.83
2018-12-10T02:34:31.130Z,47.8
2018-12-10T02:35:31.342Z,47.81
2018-12-10T02:36:30.946Z,47.81
2018-12-10T02:37:30.966Z,47.84
2018-12-10T02:38:31.170Z,47.83
2018-12-10T02:39:31.239Z,47.81
2018-12-10T02:40:31.106Z,47.8
2018-12-10T02:41:30.927Z,47.84
2018-12-10T02:42:30.994Z,47.85
2018-12-10T02:43:30.921Z,47.83
2018-12-10T02:44:30.929Z,47.79
2018-12-10T02:45:30.965Z,47.83
2018-12-10T02:46:31.128Z,47.82
2018-12-10T02:47:31.033Z,47.88
2018-12-10T02:48:30.899Z,47.78
2018-12-10T02:49:30.901Z,47.81
2018-12-10T02:50:31.347Z,47.83
2018-12-10T02:51:30.898Z,47.85
2018-12-10T02:52:30.990Z,47.87
2018-12-10T02:53:31.269Z,47.85
2018-12-10T02:54:31.530Z,47.87
2018-12-10T02:55:30.799Z,47.8
2018-12-10T02:56:30.798Z,47.8
2018-12-10T02:57:31.061Z,47.8
2018-12-10T02:58:30.884Z,47.83
2018-12-10T02:59:31.100Z,47.8
2018-12-10T03:00:31.188Z,47.8
2018-12-10T03:01:30.921Z,47.8
2018-12-10T03:02:31.244Z,47.78
2018-12-10T03:03:30.775Z,47.82
2018-12-10T03:04:30.820Z,47.83
2018-12-10T03:05:30.854Z,47.77
2018-12-10T03:06:31.484Z,47.8
2018-12-10T03:07:30.850Z,47.86
2018-12-10T03:08:31.827Z,47.84
2018-12-10T03:09:31.043Z,47.81
2018-12-10T03:10:30.789Z,47.82
2018-12-10T03:11:31.195Z,47.8
2018-12-10T03:12:31.095Z,47.84
2018-12-10T03:13:30.740Z,47.86
2018-12-10T03:14:30.772Z,47.79
2018-12-10T03:15:31.185Z,47.82
2018-12-10T03:16:31.207Z,47.84
2018-12-10T03:17:31.144Z,47.77
2018-12-10T03:18:30.995Z,47.78
2018-12-10T03:19:30.927Z,47.78
2018-12-10T03:20:30.925Z,47.8
2018-12-10T03:21:31.328Z,47.79
2018-12-10T03:22:30.974Z,47.82
2018-12-10T03:23:31.065Z,47.79
2018-12-10T03:24:31.144Z,47.84
2018-12-10T03:25:31.228Z,47.79
2018-12-10T03:26:30.910Z,47.87
2018-12-10T03:27:31.211Z,47.78
2018-12-10T03:28:31.005Z,47.85
2018-12-10T03:29:31.491Z,47.82
2018-12-10T03:30:31.034Z,47.84
2018-12-10T03:31:30.987Z,47.83
2018-12-10T03:32:31.001Z,47.78
2018-12-10T03:33:30.818Z,47.8
2018-12-10T03:34:31.033Z,47.81
2018-12-10T03:35:30.775Z,47.77
2018-12-10T03:36:30.919Z,47.77
2018-12-10T03:37:31.075Z,47.84
2018-12-10T03:38:30.856Z,47.81
2018-12-10T03:39:31.283Z,47.76
2018-12-10T03:40:30.989Z,47.83
2018-12-10T03:41:30.899Z,47.79
2018-12-10T03:42:30.964Z,47.81
2018-12-10T03:43:31.307Z,47.82
2018-12-10T03:44:31.242Z,47.79
2018-12-10T03:45:31.220Z,47.78
2018-12-10T03:46:31.035Z,47.72
2018-12-10T03:47:31.119Z,47.83
2018-12-10T03:48:30.925Z,47.85
2018-12-10T03:49:30.809Z,47.81
2018-12-10T03:50:31.162Z,47.78
2018-12-10T03:51:31.036Z,47.85
2018-12-10T03:52:31.305Z,47.82
2018-12-10T03:53:31.003Z,47.8
2018-12-10T03:54:31.054Z,47.85
2018-12-10T03:55:31.833Z,47.81
2018-12-10T03:56:30.775Z,47.89
2018-12-10T03:57:31.216Z,47.83
2018-12-10T03:58:31.382Z,47.8
2018-12-10T03:59:30.898Z,47.85
2018-12-10T04:00:30.829Z,47.82
2018-12-10T04:01:31.345Z,47.78
2018-12-10T04:02:30.718Z,47.83
2018-12-10T04:03:31.188Z,47.89
2018-12-10T04:04:31.011Z,47.87
2018-12-10T04:05:30.912Z,47.82
2018-12-10T04:06:31.266Z,47.81
2018-12-10T04:07:30.846Z,47.81
2018-12-10T04:08:30.975Z,47.85
2018-12-10T04:09:31.026Z,47.78
2018-12-10T04:10:30.832Z,47.82
2018-12-10T04:11:30.956Z,47.86
2018-12-10T04:12:30.819Z,47.74
2018-12-10T04:13:31.048Z,47.79
2018-12-10T04:14:31.125Z,47.85
2018-12-10T04:15:30.898Z,47.81
2018-12-10T04:16:31.120Z,47.84
2018-12-10T04:17:31.136Z,47.87
2018-12-10T04:18:31.328Z,47.83
2018-12-10T04:19:30.877Z,47.85
2018-12-10T04:20:31.060Z,47.83
2018-12-10T04:21:30.750Z,47.82
2018-12-10T04:22:30.895Z,47.84
2018-12-10T04:23:30.828Z,47.81
2018-12-10T04:24:30.732Z,47.84
2018-12-10T04:25:30.635Z,47.85
2018-12-10T04:26:31.013Z,47.87
2018-12-10T04:27:30.926Z,47.87
2018-12-10T04:28:30.894Z,47.87
2018-12-10T04:29:31.066Z,47.87
2018-12-10T04:30:30.833Z,47.9
2018-12-10T04:31:30.736Z,47.9
2018-12-10T04:32:31.163Z,47.84
2018-12-10T04:33:30.898Z,47.94
2018-12-10T04:34:30.791Z,47.89
2018-12-10T04:35:30.826Z,47.84
2018-12-10T04:36:30.892Z,47.89
2018-12-10T04:37:30.991Z,47.89
2018-12-10T04:38:30.975Z,47.88
2018-12-10T04:39:30.960Z,47.83
2018-12-10T04:40:30.946Z,47.89
2018-12-10T04:41:31.055Z,47.83
2018-12-10T04:42:30.827Z,47.86
2018-12-10T04:43:31.044Z,47.9
2018-12-10T04:44:30.675Z,47.9
2018-12-10T04:45:30.988Z,47.86
2018-12-10T04:46:30.714Z,47.84
2018-12-10T04:47:30.894Z,47.82
2018-12-10T04:48:31.365Z,47.9
2018-12-10T04:49:31.268Z,47.85
2018-12-10T04:50:31.178Z,47.88
2018-12-10T04:51:31.095Z,47.85
2018-12-10T04:52:30.774Z,47.89
2018-12-10T04:53:30.700Z,47.87
2018-12-10T04:54:31.226Z,47.88
2018-12-10T04:55:30.939Z,47.83
2018-12-10T04:56:30.776Z,47.84
2018-12-10T04:57:30.982Z,47.84
2018-12-10T04:58:30.813Z,47.89
2018-12-10T04:59:31.129Z,47.88
2018-12-10T05:00:31.158Z,47.85
2018-12-10T05:01:30.726Z,47.9
2018-12-10T05:02:30.924Z,47.86
2018-12-10T05:03:31.025Z,47.86
2018-12-10T05:04:31.095Z,47.87
2018-12-10T05:05:30.952Z,47.9
2018-12-10T05:06:31.197Z,47.88
2018-12-10T05:07:30.734Z,47.89
2018-12-10T05:08:31.311Z,47.91
2018-12-10T05:09:30.770Z,47.88
2018-12-10T05:10:31.024Z,47.8
2018-12-10T05:11:30.795Z,47.9
2018-12-10T05:12:31.039Z,47.86
2018-12-10T05:13:30.853Z,47.83
2018-12-10T05:14:31.049Z,47.86
2018-12-10T05:15:30.924Z,47.86
2018-12-10T05:16:30.800Z,47.85
2018-12-10T05:17:31.178Z,47.88
2018-12-10T05:18:30.674Z,47.85
2018-12-10T05:19:30.986Z,47.85
2018-12-10T05:20:30.918Z,47.86
2018-12-10T05:21:30.752Z,47.85
2018-12-10T05:22:31.118Z,47.85
2018-12-10T05:23:30.789Z,47.88
2018-12-10T05:24:30.945Z,47.86
2018-12-10T05:25:30.725Z,47.87
2018-12-10T05:26:30.874Z,47.87
2018-12-10T05:27:30.899Z,47.9
2018-12-10T05:28:31.610Z,47.87
2018-12-10T05:29:31.304Z,47.89
2018-12-10T05:30:30.885Z,47.91
2018-12-10T05:31:31.126Z,47.89
2018-12-10T05:32:30.830Z,47.83
2018-12-10T05:33:30.882Z,47.84
2018-12-10T05:34:30.724Z,47.88
2018-12-10T05:35:30.895Z,47.88
2018-12-10T05:36:31.390Z,47.84
2018-12-10T05:37:30.834Z,47.81
2018-12-10T05:38:30.839Z,47.84
2018-12-10T05:39:30.717Z,47.84
2018-12-10T05:40:31.310Z,47.87
2018-12-10T05:41:30.765Z,47.85
2018-12-10T05:42:30.769Z,47.82
2018-12-10T05:43:30.706Z,47.81
2018-12-10T05:44:30.783Z,47.84
2018-12-10T05:45:31.074Z,47.87
2018-12-10T05:46:30.828Z,47.84
2018-12-10T05:47:30.928Z,47.86
2018-12-10T05:48:31.072Z,47.86
2018-12-10T05:49:31.100Z,47.81
2018-12-10T05:50:30.775Z,47.84
2018-12-10T05:51:31.107Z,47.84
2018-12-10T05:52:30.927Z,47.84
2018-12-10T05:53:30.897Z,47.84
2018-12-10T05:54:30.938Z,47.8
2018-12-10T05:55:30.846Z,47.8
2018-12-10T05:56:30.950Z,47.85
2018-12-10T05:57:30.660Z,47.85
2018-12-10T05:58:31.874Z,47.82
2018-12-10T05:59:30.966Z,47.8
2018-12-10T06:00:30.929Z,47.8
2018-12-10T06:01:30.933Z,47.84
2018-12-10T06:02:30.802Z,47.77
2018-12-10T06:03:30.829Z,47.78
2018-12-10T06:04:30.823Z,47.78
2018-12-10T06:05:31.128Z,47.81
2018-12-10T06:06:30.886Z,47.83
2018-12-10T06:07:30.891Z,47.83
2018-12-10T06:08:30.837Z,47.87
2018-12-10T06:09:30.815Z,47.84
2018-12-10T06:10:30.839Z,47.83
2018-12-10T06:11:30.651Z,47.82
2018-12-10T06:12:30.855Z,47.81
2018-12-10T06:13:30.646Z,47.78
2018-12-10T06:14:30.717Z,47.82
2018-12-10T06:15:31.082Z,47.77
2018-12-10T06:16:30.973Z,47.79
2018-12-10T06:17:30.850Z,47.78
2018-12-10T06:18:30.659Z,47.76
2018-12-10T06:19:30.922Z,47.81
2018-12-10T06:20:31.112Z,47.74
2018-12-10T06:21:30.766Z,47.82
2018-12-10T06:22:30.652Z,47.78
2018-12-10T06:23:30.743Z,47.79
2018-12-10T06:24:30.829Z,47.75
2018-12-10T06:25:30.641Z,47.79
2018-12-10T06:26:30.941Z,47.79
2018-12-10T06:27:30.675Z,47.8
2018-12-10T06:28:30.874Z,47.75
2018-12-10T06:29:31.162Z,47.79
2018-12-10T06:30:30.778Z,47.79
2018-12-10T06:31:30.672Z,47.77
2018-12-10T06:32:30.711Z,47.79
2018-12-10T06:33:30.792Z,47.73
2018-12-10T06:34:30.623Z,47.74
2018-12-10T06:35:30.848Z,47.74
2018-12-10T06:36:30.918Z,47.79
2018-12-10T06:37:37.956Z,47.72
2018-12-10T06:38:31.127Z,47.71
2018-12-10T06:39:31.453Z,47.77
2018-12-10T06:40:30.739Z,47.73
2018-12-10T06:41:30.865Z,47.77
2018-12-10T06:42:30.709Z,48.01
2018-12-10T06:43:30.984Z,48
2018-12-10T06:44:30.986Z,47.83
2018-12-10T06:45:30.746Z,48.17
2018-12-10T06:46:30.990Z,48.32
2018-12-10T06:47:30.799Z,48.4
2018-12-10T06:48:31.174Z,48.37
2018-12-10T06:49:30.910Z,48.47
2018-12-10T06:50:31.221Z,48.22
2018-12-10T06:51:30.988Z,48.21
2018-12-10T06:52:30.780Z,48.17
2018-12-10T06:53:30.945Z,48.15
2018-12-10T06:54:30.702Z,48.18
2018-12-10T06:55:30.807Z,48.27
2018-12-10T06:56:30.682Z,48.3
2018-12-10T06:57:30.741Z,48.38
2018-12-10T06:58:30.663Z,48.4
2018-12-10T06:59:30.722Z,48.33
2018-12-10T07:00:31.271Z,48.63
2018-12-10T07:01:31.080Z,48.37
2018-12-10T07:02:31.008Z,48.41
2018-12-10T07:03:30.657Z,48.62
2018-12-10T07:04:31.017Z,48.4
2018-12-10T07:05:31.104Z,48.47
2018-12-10T07:06:31.169Z,48.39
2018-12-10T07:07:30.679Z,48.5
2018-12-10T07:08:30.823Z,48.58
2018-12-10T07:09:30.935Z,48.85
2018-12-10T07:10:30.655Z,48.41
2018-12-10T07:11:30.900Z,48.34
2018-12-10T07:12:30.717Z,48.34
2018-12-10T07:13:30.724Z,48.05
2018-12-10T07:14:30.961Z,47.08
2018-12-10T07:15:30.769Z,46.84
2018-12-10T07:16:30.636Z,46.75
2018-12-10T07:17:31.014Z,46.62
2018-12-10T07:18:30.786Z,46.98
2018-12-10T07:19:31.006Z,46.21
2018-12-10T07:20:30.760Z,46.63
2018-12-10T07:21:30.917Z,46.57
2018-12-10T07:22:30.840Z,46.64
2018-12-10T07:23:30.737Z,46.92
2018-12-10T07:24:31.145Z,46.92
2018-12-10T07:25:30.670Z,46.97
2018-12-10T07:26:30.711Z,47.04
2018-12-10T07:27:30.707Z,47.13
2018-12-10T07:28:31.183Z,47.19
2018-12-10T07:29:31.012Z,47.23
2018-12-10T07:30:30.901Z,47.25
2018-12-10T07:31:30.833Z,47.25
2018-12-10T07:32:31.113Z,47.36
2018-12-10T07:33:30.958Z,47.43
2018-12-10T07:34:30.856Z,47.38
2018-12-10T07:35:30.906Z,47.38
2018-12-10T07:36:30.694Z,47.29
2018-12-10T07:37:30.931Z,47.22
2018-12-10T07:38:30.668Z,47.22
2018-12-10T07:39:30.957Z,47.21
2018-12-10T07:40:30.962Z,47.16
2018-12-10T07:41:30.864Z,47.2
2018-12-10T07:42:30.886Z,47.11
2018-12-10T07:43:30.981Z,47.25
2018-12-10T07:44:30.903Z,47.2
2018-12-10T07:45:30.715Z,47.1
2018-12-10T07:46:31.041Z,47.12
2018-12-10T07:47:30.773Z,47.23
2018-12-10T07:48:30.606Z,47.46
2018-12-10T07:49:30.748Z,47.39
2018-12-10T07:50:31.508Z,47.43
2018-12-10T07:51:30.941Z,47.45
2018-12-10T07:52:30.822Z,48.13
2018-12-10T07:53:30.822Z,47.69
2018-12-10T07:54:30.920Z,46.94
2018-12-10T07:55:30.771Z,46.87
2018-12-10T07:56:30.731Z,46.89
2018-12-10T07:57:30.850Z,47
2018-12-10T07:58:30.928Z,46.94
2018-12-10T07:59:30.711Z,47.06
2018-12-10T08:00:30.984Z,47.16
2018-12-10T08:01:30.768Z,47.15
2018-12-10T08:02:30.906Z,47.19
2018-12-10T08:03:30.814Z,47.28
2018-12-10T08:04:30.812Z,47.08
2018-12-10T08:05:30.906Z,47.12
2018-12-10T08:06:30.637Z,47.19
2018-12-10T08:07:30.896Z,47.17
2018-12-10T08:08:30.731Z,47.2
2018-12-10T08:09:30.758Z,47.22
2018-12-10T08:10:30.779Z,47.29
2018-12-10T08:11:30.803Z,47.28
2018-12-10T08:12:30.980Z,47.3
2018-12-10T08:13:31.425Z,47.25
2018-12-10T08:14:31.082Z,47.32
2018-12-10T08:15:30.606Z,47.29
2018-12-10T08:16:30.760Z,47.33
2018-12-10T08:17:30.617Z,47.25
2018-12-10T08:18:30.997Z,47.36
2018-12-10T08:19:31.171Z,47.24
2018-12-10T08:20:30.947Z,47.29
2018-12-10T08:21:31.125Z,47.34
2018-12-10T08:22:30.698Z,47.28
2018-12-10T08:23:31.333Z,47.29
2018-12-10T08:24:30.937Z,47.22
2018-12-10T08:25:31.247Z,47.31
2018-12-10T08:26:31.072Z,47.32
2018-12-10T08:27:30.781Z,47.28
2018-12-10T08:28:30.772Z,47.3
2018-12-10T08:29:30.891Z,47.31
2018-12-10T08:30:31.238Z,47.27
2018-12-10T08:31:30.644Z,47.25
2018-12-10T08:32:30.870Z,47.21
2018-12-10T08:33:30.708Z,47.3
2018-12-10T08:34:30.916Z,47.25
2018-12-10T08:35:31.150Z,47.24
2018-12-10T08:36:30.748Z,47.27
2018-12-10T08:37:31.071Z,47.24
2018-12-10T08:38:30.655Z,47.25
2018-12-10T08:39:30.751Z,47.31
2018-12-10T08:40:31.048Z,47.25
2018-12-10T08:41:30.693Z,47.25
2018-12-10T08:42:30.993Z,47.21
2018-12-10T08:43:31.125Z,47.24
2018-12-10T08:44:30.907Z,47.25
2018-12-10T08:45:30.754Z,47.23
2018-12-10T08:46:30.764Z,47.27
2018-12-10T08:47:30.858Z,47.25
2018-12-10T08:48:30.796Z,47.23
2018-12-10T08:49:31.229Z,47.21
2018-12-10T08:50:30.891Z,47.23
2018-12-10T08:51:30.628Z,47.23
2018-12-10T08:52:30.913Z,47.25
2018-12-10T08:53:31.054Z,47.17
2018-12-10T08:54:30.644Z,47.14
2018-12-10T08:55:30.898Z,47.22
2018-12-10T08:56:31.146Z,47.18
2018-12-10T08:57:31.248Z,47.29
2018-12-10T08:58:34.799Z,47.27
2018-12-10T08:59:35.230Z,47.21
2018-12-10T09:00:30.780Z,47.19
2018-12-10T09:01:30.916Z,47.23
2018-12-10T09:02:31.326Z,47.26
2018-12-10T09:03:31.686Z,47.22
2018-12-10T09:04:30.984Z,47.21
2018-12-10T09:05:31.056Z,47.21
2018-12-10T09:06:30.864Z,47.3
2018-12-10T09:07:30.695Z,47.23
2018-12-10T09:08:30.827Z,47.22
2018-12-10T09:09:30.743Z,47.25
2018-12-10T09:10:31.226Z,47.26
2018-12-10T09:11:30.972Z,47.25
2018-12-10T09:12:30.741Z,47.26
2018-12-10T09:13:30.915Z,47.33
2018-12-10T09:14:30.784Z,47.34
2018-12-10T09:15:30.819Z,47.25
2018-12-10T09:16:31.172Z,47.32
2018-12-10T09:17:31.159Z,47.29
2018-12-10T09:18:31.239Z,47.26
2018-12-10T09:19:31.164Z,47.3
2018-12-10T09:20:30.673Z,47.28
2018-12-10T09:21:30.837Z,47.31
2018-12-10T09:22:30.879Z,47.31
2018-12-10T09:23:30.847Z,47.31
2018-12-10T09:24:30.905Z,47.33
2018-12-10T09:25:31.217Z,47.29
2018-12-10T09:26:31.166Z,47.25
2018-12-10T09:27:30.593Z,47.32
2018-12-10T09:28:31.125Z,47.31
2018-12-10T09:29:30.831Z,47.35
2018-12-10T09:30:31.057Z,47.33
2018-12-10T09:31:30.725Z,47.33
2018-12-10T09:32:30.719Z,47.26
2018-12-10T09:33:30.795Z,47.3
2018-12-10T09:34:30.610Z,47.36
2018-12-10T09:35:30.845Z,47.29
2018-12-10T09:36:30.685Z,47.29
2018-12-10T09:37:30.857Z,47.32
2018-12-10T09:38:30.642Z,47.19
2018-12-10T09:39:30.753Z,47.25
2018-12-10T09:40:30.910Z,47.31
2018-12-10T09:41:30.602Z,47.29
2018-12-10T09:42:31.031Z,47.34
2018-12-10T09:43:30.762Z,47.34
2018-12-10T09:44:30.743Z,47.33
2018-12-10T09:45:30.568Z,47.29
2018-12-10T09:46:31.051Z,47.35
2018-12-10T09:47:30.800Z,47.27
2018-12-10T09:48:30.679Z,47.3
2018-12-10T09:49:30.871Z,47.31
2018-12-10T09:50:30.650Z,47.3
2018-12-10T09:51:30.830Z,47.27
2018-12-10T09:52:31.215Z,47.34
2018-12-10T09:53:31.129Z,47.35
2018-12-10T09:54:30.751Z,47.24
2018-12-10T09:55:31.017Z,47.32
2018-12-10T09:56:31.034Z,47.33
2018-12-10T09:57:31.019Z,47.29
2018-12-10T09:58:30.865Z,47.33
2018-12-10T09:59:30.622Z,47.33
2018-12-10T10:00:31.012Z,47.25
2018-12-10T10:01:30.898Z,47.29
2018-12-10T10:02:30.599Z,47.3
2018-12-10T10:03:30.603Z,47.27
2018-12-10T10:04:31.122Z,47.35
2018-12-10T10:05:30.727Z,47.2
2018-12-10T10:06:31.459Z,47.33
2018-12-10T10:07:31.382Z,47.31
2018-12-10T10:08:30.705Z,47.26
2018-12-10T10:09:30.965Z,47.23
2018-12-10T10:10:31.505Z,47.34
2018-12-10T10:11:30.640Z,47.25
2018-12-10T10:12:31.198Z,47.27
2018-12-10T10:13:31.113Z,47.32
2018-12-10T10:14:31.051Z,47.35
2018-12-10T10:15:30.629Z,47.27
2018-12-10T10:16:30.868Z,47.31
2018-12-10T10:17:30.783Z,47.19
2018-12-10T10:18:31.298Z,47.27
2018-12-10T10:19:30.841Z,47.22
2018-12-10T10:20:30.613Z,47.29
2018-12-10T10:21:30.855Z,47.3
2018-12-10T10:22:30.998Z,47.25
2018-12-10T10:23:30.642Z,47.3
2018-12-10T10:24:31.072Z,47.28
2018-12-10T10:25:31.019Z,47.3
2018-12-10T10:26:30.738Z,47.25
2018-12-10T10:27:30.825Z,47.25
2018-12-10T10:28:30.726Z,47.16
2018-12-10T10:29:30.762Z,47.14
2018-12-10T10:30:30.606Z,47.08
2018-12-10T10:31:31.653Z,47.19
2018-12-10T10:32:30.761Z,47.16
2018-12-10T10:33:32.780Z,47.18
2018-12-10T10:34:31.133Z,47.23
2018-12-10T10:35:31.627Z,47.2
2018-12-10T10:36:30.758Z,47.18
2018-12-10T10:37:30.741Z,47.15
2018-12-10T10:38:30.783Z,47.25
2018-12-10T10:39:30.675Z,47.2
2018-12-10T10:40:30.949Z,47.16
2018-12-10T10:41:31.667Z,47.18
2018-12-10T10:42:30.785Z,47.17
2018-12-10T10:43:31.026Z,47.23
2018-12-10T10:44:31.074Z,47.21
2018-12-10T10:45:35.222Z,47.19
2018-12-10T10:46:30.601Z,47.12
2018-12-10T10:47:30.831Z,47.2
2018-12-10T10:48:31.077Z,47.16
2018-12-10T10:49:30.735Z,47.15
2018-12-10T10:50:30.986Z,47.15
2018-12-10T10:51:30.727Z,47.21
2018-12-10T10:52:33.652Z,47.18
2018-12-10T10:53:31.240Z,47.12
2018-12-10T10:54:30.781Z,47.13
2018-12-10T10:55:30.808Z,47.09
2018-12-10T10:56:30.671Z,47.13
2018-12-10T10:57:31.729Z,47.17
2018-12-10T10:58:30.701Z,47.15
2018-12-10T10:59:31.178Z,47.12
2018-12-10T11:00:30.794Z,47.06
2018-12-10T11:01:30.782Z,47.08
2018-12-10T11:02:31.129Z,47.06
2018-12-10T11:03:31.013Z,47.07
2018-12-10T11:04:38.036Z,47.07
2018-12-10T11:05:30.965Z,47.07
2018-12-10T11:06:31.177Z,47.14
2018-12-10T11:07:31.698Z,47.09
2018-12-10T11:08:30.581Z,47.06
2018-12-10T11:09:30.692Z,47.13
2018-12-10T11:10:31.089Z,47.12
2018-12-10T11:11:30.676Z,47.2
2018-12-10T11:12:31.301Z,47.11
2018-12-10T11:13:30.906Z,47.22
2018-12-10T11:14:30.869Z,47.09
2018-12-10T11:15:30.840Z,47.12
2018-12-10T11:16:30.964Z,47.08
2018-12-10T11:17:31.119Z,47.13
2018-12-10T11:18:30.861Z,47.09
2018-12-10T11:19:30.641Z,47.16
2018-12-10T11:20:30.700Z,47.09
2018-12-10T11:21:31.000Z,47.18
2018-12-10T11:22:30.750Z,47.1
2018-12-10T11:23:31.124Z,47.15
2018-12-10T11:24:30.884Z,47.13
2018-12-10T11:25:30.654Z,47.1
2018-12-10T11:26:30.651Z,47.14
2018-12-10T11:27:30.636Z,47.18
2018-12-10T11:28:30.965Z,47.17
2018-12-10T11:29:30.682Z,47.15
2018-12-10T11:30:31.231Z,47.11
2018-12-10T11:31:30.734Z,47.15
2018-12-10T11:32:30.669Z,47.13
2018-12-10T11:33:31.019Z,47.16
2018-12-10T11:34:30.944Z,47.18
2018-12-10T11:35:30.772Z,47.13
2018-12-10T11:36:30.748Z,47.15
2018-12-10T11:37:31.129Z,47.17
2018-12-10T11:38:31.147Z,47.13
2018-12-10T11:39:30.689Z,47.2
2018-12-10T11:40:30.522Z,47.11
2018-12-10T11:41:30.772Z,47.17
2018-12-10T11:42:30.858Z,47.12
2018-12-10T11:43:30.704Z,47.13
2018-12-10T11:44:30.757Z,47.13
2018-12-10T11:45:30.595Z,47.09
2018-12-10T11:46:31.498Z,47.11
2018-12-10T11:47:30.978Z,47.17
2018-12-10T11:48:30.731Z,47.11
2018-12-10T11:49:31.111Z,47.12
2018-12-10T11:50:31.214Z,47.2
2018-12-10T11:51:30.818Z,47.09
2018-12-10T11:52:30.693Z,47.19
2018-12-10T11:53:30.680Z,47.17
2018-12-10T11:54:30.905Z,47.11
2018-12-10T11:55:31.018Z,47.12
2018-12-10T11:56:31.183Z,47.12
2018-12-10T11:57:31.053Z,47.16
2018-12-10T11:58:31.193Z,47.13
2018-12-10T11:59:30.701Z,47.15
2018-12-10T12:00:30.605Z,47.08
2018-12-10T12:01:31.169Z,47.03
2018-12-10T12:02:30.704Z,47.08
2018-12-10T12:03:30.670Z,47.1
2018-12-10T12:04:30.538Z,47.09
2018-12-10T12:05:30.931Z,47.13
2018-12-10T12:06:30.701Z,47.08
2018-12-10T12:07:30.722Z,47.06
2018-12-10T12:08:31.496Z,47.05
2018-12-10T12:09:30.815Z,47.06
2018-12-10T12:10:30.609Z,47.11
2018-12-10T12:11:30.974Z,47.11
2018-12-10T12:12:30.779Z,47.14
2018-12-10T12:13:31.599Z,47.07
2018-12-10T12:14:31.036Z,47.12
2018-12-10T12:15:30.660Z,47.05
2018-12-10T12:16:31.015Z,47.1
2018-12-10T12:17:30.915Z,47.11
2018-12-10T12:18:30.739Z,47.16
2018-12-10T12:19:30.571Z,47.16
2018-12-10T12:20:30.727Z,47.07
2018-12-10T12:21:30.658Z,47.09
2018-12-10T12:22:30.717Z,47.07
2018-12-10T12:23:31.050Z,47.12
2018-12-10T12:24:30.756Z,47.08
2018-12-10T12:25:30.902Z,47.1
2018-12-10T12:26:31.234Z,47.08
2018-12-10T12:27:30.683Z,47.12
2018-12-10T12:28:30.806Z,47.1
2018-12-10T12:29:30.717Z,47.03
2018-12-10T12:30:30.840Z,47.02
2018-12-10T12:31:30.638Z,47.07
2018-12-10T12:32:30.768Z,47.03
2018-12-10T12:33:31.125Z,47.04
2018-12-10T12:34:30.674Z,47.03
2018-12-10T12:35:31.169Z,47.06
2018-12-10T12:36:31.053Z,47.05
2018-12-10T12:37:30.733Z,47.1
2018-12-10T12:38:30.554Z,47.05
2018-12-10T12:39:30.746Z,47.08
2018-12-10T12:40:31.343Z,47.07
2018-12-10T12:41:31.112Z,47.04
2018-12-10T12:42:30.669Z,47.03
2018-12-10T12:43:30.888Z,47.06
2018-12-10T12:44:31.404Z,47.06
2018-12-10T12:45:30.967Z,47.06
2018-12-10T12:46:31.207Z,47.07
2018-12-10T12:47:30.749Z,47.06
2018-12-10T12:48:30.894Z,47.04
2018-12-10T12:49:30.675Z,47.04
2018-12-10T12:50:30.930Z,47.05
2018-12-10T12:51:31.060Z,47.06
2018-12-10T12:52:30.620Z,47.03
2018-12-10T12:53:30.968Z,47.01
2018-12-10T12:54:30.740Z,47.07
2018-12-10T12:55:31.114Z,47.04